createdAt,value
2018-09-05T00:01:49.672Z,18.30
2018-09-05T00:04:18.498Z,18.10
2018-09-05T00:06:46.955Z,18.10
2018-09-05T00:09:15.442Z,18.20
2018-09-05T00:11:44.303Z,18.10
2018-09-05T00:14:12.747Z,18.00
2018-09-05T00:16:41.202Z,18.00
2018-09-05T00:19:09.675Z,17.90
2018-09-05T00:21:38.145Z,17.90
2018-09-05T00:24:06.642Z,17.80
2018-09-05T00:26:35.167Z,17.80
2018-09-05T00:29:03.604Z,17.70
2018-09-05T00:31:32.111Z,17.70
2018-09-05T00:34:00.598Z,17.60
2018-09-05T00:36:29.071Z,17.70
2018-09-05T00:38:58.137Z,17.60
2018-09-05T00:41:26.615Z,17.60
2018-09-05T00:43:55.023Z,17.70
2018-09-05T00:46:23.842Z,17.60
2018-09-05T00:48:52.552Z,17.60
2018-09-05T00:51:21.021Z,17.80
2018-09-05T00:53:49.460Z,17.70
2018-09-05T00:56:18.228Z,17.60
2018-09-05T00:58:46.931Z,17.40
2018-09-05T01:01:15.414Z,17.40
2018-09-05T01:03:44.182Z,17.40
2018-09-05T01:06:12.873Z,17.40
2018-09-05T01:08:41.326Z,17.30
2018-09-05T01:11:10.068Z,17.40
2018-09-05T01:13:38.623Z,17.40
2018-09-05T01:16:07.407Z,17.30
2018-09-05T01:18:35.835Z,17.20
2018-09-05T01:21:04.364Z,17.20
2018-09-05T01:23:33.157Z,17.10
2018-09-05T01:26:01.634Z,17.10
2018-09-05T01:28:30.075Z,16.90
2018-09-05T01:30:58.563Z,16.70
2018-09-05T01:33:27.046Z,16.70
2018-09-05T01:36:00.846Z,16.80
2018-09-05T01:38:30.071Z,16.70
2018-09-05T01:40:58.492Z,16.90
2018-09-05T01:43:26.958Z,16.80
2018-09-05T01:45:55.472Z,16.80
2018-09-05T01:48:24.291Z,16.80
2018-09-05T01:50:52.864Z,16.70
2018-09-05T01:53:21.358Z,16.60
2018-09-05T01:55:49.856Z,16.60
2018-09-05T01:58:18.419Z,16.60
2018-09-05T02:00:47.039Z,16.70
2018-09-05T02:03:15.572Z,16.60
2018-09-05T02:05:44.050Z,16.60
2018-09-05T02:08:12.567Z,16.80
2018-09-05T02:10:41.062Z,16.70
2018-09-05T02:13:09.598Z,16.70
2018-09-05T02:15:38.104Z,16.60
2018-09-05T02:18:06.633Z,16.40
2018-09-05T02:20:35.119Z,16.50
2018-09-05T02:23:03.644Z,16.30
2018-09-05T02:25:32.152Z,16.20
2018-09-05T02:28:00.967Z,16.00
2018-09-05T02:30:29.460Z,16.00
2018-09-05T02:32:58.550Z,16.20
2018-09-05T02:35:27.050Z,16.20
2018-09-05T02:37:55.606Z,16.30
2018-09-05T02:40:24.219Z,16.40
2018-09-05T02:42:52.710Z,16.30
2018-09-05T02:45:21.208Z,16.30
2018-09-05T02:47:49.733Z,16.20
2018-09-05T02:50:18.250Z,16.10
2018-09-05T02:52:46.747Z,16.30
2018-09-05T02:55:20.575Z,16.20
2018-09-05T02:57:49.079Z,16.00
2018-09-05T03:00:17.589Z,15.90
2018-09-05T03:02:46.102Z,16.10
2018-09-05T03:05:14.616Z,16.00
2018-09-05T03:07:43.184Z,15.90
2018-09-05T03:10:11.678Z,15.90
2018-09-05T03:12:40.224Z,15.80
2018-09-05T03:15:08.740Z,15.90
2018-09-05T03:17:37.279Z,15.80
2018-09-05T03:20:06.431Z,15.80
2018-09-05T03:22:35.275Z,15.70
2018-09-05T03:25:03.786Z,15.70
2018-09-05T03:27:32.332Z,15.70
2018-09-05T03:30:00.803Z,15.70
2018-09-05T03:32:29.423Z,15.70
2018-09-05T03:34:57.828Z,15.70
2018-09-05T03:37:26.451Z,15.70
2018-09-05T03:39:55.238Z,15.80
2018-09-05T03:42:23.817Z,15.90
2018-09-05T03:44:52.313Z,15.90
2018-09-05T03:47:20.833Z,15.80
2018-09-05T03:49:49.424Z,15.80
2018-09-05T03:52:17.899Z,15.70
2018-09-05T03:54:46.449Z,15.70
2018-09-05T03:57:14.926Z,15.60
2018-09-05T03:59:43.442Z,15.60
2018-09-05T04:02:11.923Z,15.60
2018-09-05T04:04:40.448Z,15.70
2018-09-05T04:07:08.972Z,15.60
2018-09-05T04:09:37.552Z,15.60
2018-09-05T04:12:06.146Z,15.50
2018-09-05T04:14:34.637Z,15.50
2018-09-05T04:17:03.126Z,15.50
2018-09-05T04:19:31.642Z,15.50
2018-09-05T04:22:00.399Z,15.50
2018-09-05T04:24:28.923Z,15.60
2018-09-05T04:26:57.398Z,15.50
2018-09-05T04:29:25.993Z,15.50
2018-09-05T04:31:55.126Z,15.80
2018-09-05T04:34:23.639Z,15.90
2018-09-05T04:36:52.119Z,15.80
2018-09-05T04:39:20.626Z,15.70
2018-09-05T04:41:49.172Z,15.60
2018-09-05T04:44:17.687Z,15.60
2018-09-05T04:46:46.175Z,15.50
2018-09-05T04:49:14.722Z,15.50
2018-09-05T04:51:43.226Z,15.50
2018-09-05T04:54:11.729Z,15.50
2018-09-05T04:56:40.224Z,15.40
2018-09-05T04:59:08.732Z,15.50
2018-09-05T05:01:37.542Z,15.50
2018-09-05T05:04:06.071Z,15.60
2018-09-05T05:06:34.575Z,15.60
2018-09-05T05:09:03.503Z,15.50
2018-09-05T05:11:32.319Z,15.70
2018-09-05T05:14:00.979Z,15.60
2018-09-05T05:16:29.506Z,15.50
2018-09-05T05:18:58.029Z,15.60
2018-09-05T05:21:26.545Z,15.50
2018-09-05T05:23:55.119Z,15.50
2018-09-05T05:26:23.591Z,15.50
2018-09-05T05:28:54.998Z,15.30
2018-09-05T05:31:23.463Z,15.30
2018-09-05T05:33:51.996Z,15.40
2018-09-05T05:36:20.544Z,15.50
2018-09-05T05:38:49.061Z,15.50
2018-09-05T05:41:17.543Z,15.60
2018-09-05T05:43:46.426Z,15.60
2018-09-05T05:46:15.005Z,15.60
2018-09-05T05:48:43.519Z,15.50
2018-09-05T05:51:12.002Z,15.60
2018-09-05T05:53:40.854Z,15.70
2018-09-05T05:56:09.338Z,15.60
2018-09-05T05:58:37.871Z,15.70
2018-09-05T06:01:06.431Z,15.80
2018-09-05T06:03:35.159Z,16.00
2018-09-05T06:06:03.819Z,16.10
2018-09-05T06:08:32.602Z,16.10
2018-09-05T06:11:01.180Z,16.20
2018-09-05T06:13:29.680Z,16.30
2018-09-05T06:15:58.200Z,16.50
2018-09-05T06:18:26.688Z,16.60
2018-09-05T06:20:55.251Z,16.70
2018-09-05T06:23:23.739Z,16.80
2018-09-05T06:25:52.263Z,16.90
2018-09-05T06:28:20.730Z,17.20
2018-09-05T06:30:49.264Z,17.30
2018-09-05T06:33:17.746Z,17.20
2018-09-05T06:35:46.619Z,17.10
2018-09-05T06:38:15.102Z,17.20
2018-09-05T06:40:43.896Z,17.30
2018-09-05T06:43:12.409Z,17.20
2018-09-05T06:45:41.219Z,17.50
2018-09-05T06:48:09.695Z,17.50
2018-09-05T06:50:38.194Z,17.50
2018-09-05T06:53:06.997Z,17.70
2018-09-05T06:55:35.511Z,18.10
2018-09-05T06:58:04.079Z,18.20
2018-09-05T07:00:32.649Z,18.40
2018-09-05T07:03:01.247Z,18.40
2018-09-05T07:05:29.832Z,18.50
2018-09-05T07:07:58.575Z,18.60
2018-09-05T07:10:27.327Z,18.90
2018-09-05T07:12:55.795Z,18.90
2018-09-05T07:15:24.342Z,19.20
2018-09-05T07:17:52.869Z,19.40
2018-09-05T07:20:21.379Z,19.50
2018-09-05T07:22:49.890Z,19.70
2018-09-05T07:25:18.468Z,19.80
2018-09-05T07:27:46.952Z,19.90
2018-09-05T07:30:16.971Z,20.00
2018-09-05T07:32:45.761Z,20.20
2018-09-05T07:35:14.601Z,20.10
2018-09-05T07:37:43.091Z,20.30
2018-09-05T07:40:11.778Z,20.50
2018-09-05T07:42:40.243Z,20.60
2018-09-05T07:45:08.833Z,20.70
2018-09-05T07:47:37.394Z,20.90
2018-09-05T07:50:06.306Z,20.90
2018-09-05T07:52:38.153Z,21.10
2018-09-05T07:55:06.967Z,21.30
2018-09-05T07:57:35.464Z,21.50
2018-09-05T08:00:04.060Z,21.50
2018-09-05T08:02:32.608Z,21.80
2018-09-05T08:05:01.136Z,21.80
2018-09-05T08:07:29.670Z,21.70
2018-09-05T08:09:58.160Z,21.70
2018-09-05T08:12:26.645Z,21.90
2018-09-05T08:14:55.119Z,22.00
2018-09-05T08:17:23.707Z,22.10
2018-09-05T08:19:52.198Z,22.40
2018-09-05T08:22:20.691Z,22.50
2018-09-05T08:24:49.282Z,22.70
2018-09-05T08:27:21.462Z,22.80
2018-09-05T08:29:50.347Z,22.90
2018-09-05T08:32:18.867Z,22.90
2018-09-05T08:34:47.655Z,23.00
2018-09-05T08:37:16.367Z,23.10
2018-09-05T08:39:44.695Z,23.20
2018-09-05T08:42:13.402Z,22.70
2018-09-05T08:44:41.982Z,23.10
2018-09-05T08:47:10.424Z,23.50
2018-09-05T08:49:38.912Z,23.80
2018-09-05T08:52:07.399Z,24.20
2018-09-05T08:54:35.936Z,24.20
2018-09-05T08:57:04.475Z,24.20
2018-09-05T08:59:32.958Z,24.40
2018-09-05T09:02:01.512Z,24.40
2018-09-05T09:04:30.029Z,24.50
2018-09-05T09:06:58.547Z,24.60
2018-09-05T09:09:27.024Z,24.90
2018-09-05T09:11:55.810Z,25.20
2018-09-05T09:14:24.292Z,25.20
2018-09-05T09:16:52.883Z,25.10
2018-09-05T09:19:21.426Z,25.20
2018-09-05T09:21:49.948Z,25.40
2018-09-05T09:24:18.523Z,25.60
2018-09-05T09:26:47.036Z,25.80
2018-09-05T09:29:15.536Z,25.80
2018-09-05T09:31:44.080Z,25.80
2018-09-05T09:34:12.546Z,25.90
2018-09-05T09:36:41.031Z,26.00
2018-09-05T09:39:10.674Z,26.10
2018-09-05T09:41:39.263Z,26.00
2018-09-05T09:44:07.755Z,25.90
2018-09-05T09:46:36.913Z,25.60
2018-09-05T09:49:05.659Z,25.70
2018-09-05T09:51:34.180Z,25.60
2018-09-05T09:54:02.668Z,26.00
2018-09-05T09:56:31.220Z,26.10
2018-09-05T09:58:59.684Z,26.00
2018-09-05T10:01:33.567Z,25.90
2018-09-05T10:04:07.490Z,25.80
2018-09-05T10:06:41.482Z,26.40
2018-09-05T10:09:15.244Z,26.80
2018-09-05T10:11:49.157Z,26.90
2018-09-05T10:14:22.943Z,27.30
2018-09-05T10:16:56.945Z,27.60
2018-09-05T10:19:25.460Z,27.60
2018-09-05T10:21:54.970Z,27.70
2018-09-05T10:24:23.731Z,28.00
2018-09-05T10:26:52.902Z,28.00
2018-09-05T10:29:21.396Z,28.00
2018-09-05T10:31:50.557Z,28.00
2018-09-05T10:34:19.021Z,27.50
2018-09-05T10:36:47.559Z,27.70
2018-09-05T10:39:18.640Z,28.00
2018-09-05T10:41:47.151Z,28.10
2018-09-05T10:44:15.709Z,28.00
2018-09-05T10:46:44.606Z,28.40
2018-09-05T10:49:13.132Z,28.60
2018-09-05T10:51:46.942Z,28.30
2018-09-05T10:54:15.517Z,28.50
2018-09-05T10:56:44.282Z,28.70
2018-09-05T10:59:13.082Z,29.00
2018-09-05T11:01:41.650Z,29.20
2018-09-05T11:04:13.065Z,29.40
2018-09-05T11:06:41.815Z,29.60
2018-09-05T11:09:11.531Z,29.40
2018-09-05T11:11:40.415Z,29.40
2018-09-05T11:14:09.995Z,29.20
2018-09-05T11:16:38.676Z,28.40
2018-09-05T11:19:07.592Z,28.80
2018-09-05T11:21:36.114Z,29.00
2018-09-05T11:24:04.647Z,29.10
2018-09-05T11:26:33.270Z,29.00
2018-09-05T11:29:06.959Z,29.10
2018-09-05T11:31:35.462Z,29.10
2018-09-05T11:34:04.019Z,29.10
2018-09-05T11:36:32.511Z,29.30
2018-09-05T11:39:01.001Z,29.50
2018-09-05T11:41:29.496Z,29.60
2018-09-05T11:43:58.047Z,30.00
2018-09-05T11:46:26.528Z,30.20
2018-09-05T11:48:55.023Z,30.60
2018-09-05T11:51:23.759Z,30.30
2018-09-05T11:53:52.262Z,30.20
2018-09-05T11:56:20.721Z,30.00
2018-09-05T11:58:49.247Z,30.00
2018-09-05T12:01:17.731Z,30.50
2018-09-05T12:03:46.248Z,30.40
2018-09-05T12:06:14.720Z,30.20
2018-09-05T12:08:43.202Z,30.60
2018-09-05T12:11:12.052Z,30.50
2018-09-05T12:13:40.571Z,30.10
2018-09-05T12:16:09.028Z,30.30
2018-09-05T12:18:37.554Z,30.50
2018-09-05T12:21:06.031Z,30.80
2018-09-05T12:23:34.640Z,31.10
2018-09-05T12:26:03.172Z,31.20
2018-09-05T12:28:31.700Z,30.80
2018-09-05T12:31:00.186Z,30.80
2018-09-05T12:33:28.687Z,30.90
2018-09-05T12:35:57.176Z,30.60
2018-09-05T12:38:25.719Z,30.50
2018-09-05T12:40:54.215Z,30.40
2018-09-05T12:43:22.920Z,30.90
2018-09-05T12:45:51.419Z,31.10
2018-09-05T12:48:20.254Z,31.00
2018-09-05T12:50:48.705Z,30.90
2018-09-05T12:53:17.227Z,31.10
2018-09-05T12:55:50.816Z,31.40
2018-09-05T12:58:19.934Z,31.50
2018-09-05T13:00:48.450Z,31.20
2018-09-05T13:03:16.967Z,30.90
2018-09-05T13:05:45.463Z,31.10
2018-09-05T13:08:14.000Z,31.30
2018-09-05T13:10:42.479Z,31.50
2018-09-05T13:13:10.953Z,31.30
2018-09-05T13:15:39.501Z,31.20
2018-09-05T13:18:08.343Z,31.50
2018-09-05T13:20:36.842Z,31.30
2018-09-05T13:23:05.378Z,31.30
2018-09-05T13:25:33.888Z,31.00
2018-09-05T13:28:02.355Z,31.30
2018-09-05T13:30:31.147Z,31.20
2018-09-05T13:32:59.662Z,31.20
2018-09-05T13:35:28.259Z,31.20
2018-09-05T13:37:56.748Z,31.10
2018-09-05T13:40:25.327Z,31.30
2018-09-05T13:42:53.819Z,31.30
2018-09-05T13:45:22.377Z,31.20
2018-09-05T13:47:50.911Z,30.90
2018-09-05T13:50:19.425Z,30.80
2018-09-05T13:52:47.956Z,30.80
2018-09-05T13:55:16.489Z,31.10
2018-09-05T13:57:45.586Z,31.30
2018-09-05T14:00:15.563Z,31.00
2018-09-05T14:02:45.809Z,30.30
2018-09-05T14:05:14.790Z,30.60
2018-09-05T14:07:44.055Z,30.80
2018-09-05T14:10:13.284Z,30.60
2018-09-05T14:12:41.847Z,30.90
2018-09-05T14:15:10.345Z,31.10
2018-09-05T14:17:38.835Z,31.20
2018-09-05T14:20:07.444Z,31.10
2018-09-05T14:22:35.955Z,30.90
2018-09-05T14:25:04.590Z,30.80
2018-09-05T14:27:33.475Z,30.60
2018-09-05T14:30:02.257Z,30.60
2018-09-05T14:32:30.758Z,30.60
2018-09-05T14:35:05.860Z,30.90
2018-09-05T14:37:34.319Z,31.10
2018-09-05T14:40:02.888Z,31.20
2018-09-05T14:42:31.327Z,31.20
2018-09-05T14:44:59.827Z,31.20
2018-09-05T14:47:28.319Z,31.10
2018-09-05T14:49:56.809Z,30.90
2018-09-05T14:52:25.310Z,30.90
2018-09-05T14:54:53.973Z,31.10
2018-09-05T14:57:22.460Z,31.30
2018-09-05T14:59:50.977Z,31.30
2018-09-05T15:02:19.835Z,31.20
2018-09-05T15:04:48.691Z,31.00
2018-09-05T15:07:17.266Z,30.90
2018-09-05T15:09:45.780Z,30.80
2018-09-05T15:12:14.259Z,30.60
2018-09-05T15:14:43.054Z,30.70
2018-09-05T15:17:11.838Z,30.60
2018-09-05T15:19:40.439Z,30.40
2018-09-05T15:22:08.991Z,30.60
2018-09-05T15:24:37.544Z,30.20
2018-09-05T15:27:06.903Z,30.10
2018-09-05T15:29:35.384Z,30.10
2018-09-05T15:32:03.881Z,30.20
2018-09-05T15:34:32.374Z,30.40
2018-09-05T15:37:01.091Z,30.30
2018-09-05T15:39:29.590Z,30.20
2018-09-05T15:41:58.097Z,30.00
2018-09-05T15:44:26.607Z,30.10
2018-09-05T15:46:55.160Z,30.10
2018-09-05T15:49:23.899Z,30.00
2018-09-05T15:51:54.898Z,29.80
2018-09-05T15:54:24.308Z,29.70
2018-09-05T15:56:53.321Z,29.60
2018-09-05T15:59:22.489Z,29.50
2018-09-05T16:01:51.062Z,29.50
2018-09-05T16:04:19.563Z,29.20
2018-09-05T16:06:48.051Z,28.90
2018-09-05T16:09:16.882Z,29.00
2018-09-05T16:11:45.641Z,28.70
2018-09-05T16:14:14.102Z,29.00
2018-09-05T16:16:42.590Z,29.10
2018-09-05T16:19:11.068Z,29.10
2018-09-05T16:21:39.995Z,28.90
2018-09-05T16:24:08.501Z,29.00
2018-09-05T16:26:37.038Z,29.00
2018-09-05T16:29:05.532Z,29.00
2018-09-05T16:31:34.046Z,28.90
2018-09-05T16:34:02.566Z,28.70
2018-09-05T16:36:31.376Z,28.60
2018-09-05T16:39:00.202Z,28.50
2018-09-05T16:41:28.977Z,28.30
2018-09-05T16:44:00.569Z,28.50
2018-09-05T16:46:29.090Z,28.60
2018-09-05T16:48:57.587Z,28.70
2018-09-05T16:51:26.076Z,28.50
2018-09-05T16:53:54.597Z,28.50
2018-09-05T16:56:23.470Z,28.40
2018-09-05T16:58:51.995Z,28.30
2018-09-05T17:01:20.527Z,28.30
2018-09-05T17:03:48.982Z,28.20
2018-09-05T17:06:17.495Z,28.00
2018-09-05T17:08:45.994Z,28.00
2018-09-05T17:11:14.612Z,28.00
2018-09-05T17:13:43.286Z,28.00
2018-09-05T17:16:11.794Z,27.90
2018-09-05T17:18:40.267Z,27.70
2018-09-05T17:21:08.778Z,27.60
2018-09-05T17:23:37.267Z,27.60
2018-09-05T17:26:05.772Z,27.50
2018-09-05T17:28:34.342Z,27.40
2018-09-05T17:31:03.280Z,27.40
2018-09-05T17:33:31.767Z,27.40
2018-09-05T17:36:00.393Z,27.20
2018-09-05T17:38:28.939Z,27.10
2018-09-05T17:40:57.533Z,26.80
2018-09-05T17:43:26.239Z,26.90
2018-09-05T17:45:54.807Z,26.70
2018-09-05T17:48:23.574Z,26.50
2018-09-05T17:50:52.094Z,26.40
2018-09-05T17:53:20.615Z,26.20
2018-09-05T17:55:49.724Z,26.00
2018-09-05T17:58:18.293Z,25.90
2018-09-05T18:00:47.301Z,25.80
2018-09-05T18:03:16.383Z,25.70
2018-09-05T18:05:44.958Z,25.70
2018-09-05T18:08:13.650Z,25.40
2018-09-05T18:10:42.231Z,25.20
2018-09-05T18:13:10.836Z,24.90
2018-09-05T18:15:39.597Z,24.70
2018-09-05T18:18:08.113Z,24.60
2018-09-05T18:20:36.664Z,24.40
2018-09-05T18:23:05.310Z,24.30
2018-09-05T18:25:34.336Z,24.20
2018-09-05T18:28:03.000Z,24.00
2018-09-05T18:30:31.514Z,23.90
2018-09-05T18:33:00.047Z,23.80
2018-09-05T18:35:28.547Z,23.60
2018-09-05T18:37:57.074Z,23.50
2018-09-05T18:40:25.559Z,23.50
2018-09-05T18:42:54.377Z,23.20
2018-09-05T18:45:22.879Z,23.10
2018-09-05T18:47:51.447Z,23.00
2018-09-05T18:50:19.936Z,23.10
2018-09-05T18:52:48.488Z,23.00
2018-09-05T18:55:16.981Z,22.90
2018-09-05T18:57:45.537Z,23.10
2018-09-05T19:00:14.042Z,23.10
2018-09-05T19:02:42.545Z,23.00
2018-09-05T19:05:11.006Z,22.80
2018-09-05T19:07:39.514Z,22.70
2018-09-05T19:10:08.001Z,22.70
2018-09-05T19:12:36.526Z,22.70
2018-09-05T19:15:05.363Z,22.70
2018-09-05T19:17:34.117Z,22.50
2018-09-05T19:20:02.959Z,22.30
2018-09-05T19:22:31.953Z,22.20
2018-09-05T19:25:00.387Z,22.00
2018-09-05T19:27:28.891Z,21.70
2018-09-05T19:29:57.347Z,21.60
2018-09-05T19:32:25.937Z,21.50
2018-09-05T19:34:54.427Z,21.50
2018-09-05T19:37:22.956Z,21.30
2018-09-05T19:39:51.440Z,21.30
2018-09-05T19:42:20.038Z,21.40
2018-09-05T19:44:48.469Z,21.20
2018-09-05T19:47:18.096Z,21.10
2018-09-05T19:49:47.117Z,21.00
2018-09-05T19:52:15.650Z,21.00
2018-09-05T19:54:44.143Z,21.20
2018-09-05T19:57:12.674Z,21.30
2018-09-05T19:59:42.140Z,21.10
2018-09-05T20:02:12.635Z,21.10
2018-09-05T20:04:42.519Z,20.90
2018-09-05T20:07:11.618Z,20.80
2018-09-05T20:09:41.831Z,20.80
2018-09-05T20:12:12.409Z,20.70
2018-09-05T20:14:42.217Z,20.80
2018-09-05T20:17:12.529Z,20.70
2018-09-05T20:19:43.147Z,20.80
2018-09-05T20:22:13.082Z,21.10
2018-09-05T20:24:43.549Z,21.00
2018-09-05T20:27:14.475Z,20.90
2018-09-05T20:29:45.286Z,20.70
2018-09-05T20:32:16.377Z,20.60
2018-09-05T20:34:44.917Z,20.50
2018-09-05T20:37:13.431Z,20.50
2018-09-05T20:39:41.920Z,20.40
2018-09-05T20:42:10.430Z,20.30
2018-09-05T20:44:38.893Z,20.30
2018-09-05T20:47:07.419Z,20.20
2018-09-05T20:49:35.891Z,20.10
2018-09-05T20:52:04.429Z,20.10
2018-09-05T20:54:32.952Z,20.20
2018-09-05T20:57:01.491Z,20.20
2018-09-05T20:59:30.003Z,20.10
2018-09-05T21:01:58.888Z,20.20
2018-09-05T21:04:27.426Z,20.00
2018-09-05T21:06:56.167Z,19.70
2018-09-05T21:09:24.956Z,19.60
2018-09-05T21:11:53.426Z,19.50
2018-09-05T21:14:22.157Z,19.40
2018-09-05T21:16:50.681Z,19.50
2018-09-05T21:19:19.174Z,19.70
2018-09-05T21:21:47.641Z,19.70
2018-09-05T21:24:16.434Z,19.70
2018-09-05T21:26:44.967Z,19.50
2018-09-05T21:29:13.454Z,19.40
2018-09-05T21:31:41.925Z,19.30
2018-09-05T21:34:10.482Z,19.20
2018-09-05T21:36:38.966Z,18.90
2018-09-05T21:39:08.733Z,18.80
2018-09-05T21:41:37.265Z,18.80
2018-09-05T21:44:05.807Z,18.60
2018-09-05T21:46:34.478Z,18.60
2018-09-05T21:49:02.981Z,18.60
2018-09-05T21:51:31.446Z,19.00
2018-09-05T21:53:59.975Z,19.20
2018-09-05T21:56:28.467Z,19.40
2018-09-05T21:58:57.020Z,19.30
2018-09-05T22:01:25.523Z,19.20
2018-09-05T22:03:54.038Z,19.00
2018-09-05T22:06:22.493Z,18.90
2018-09-05T22:08:51.355Z,19.00
2018-09-05T22:11:24.863Z,18.80
2018-09-05T22:13:53.636Z,18.60
2018-09-05T22:16:24.902Z,18.40
2018-09-05T22:18:53.991Z,18.30
2018-09-05T22:21:22.479Z,18.40
2018-09-05T22:23:50.983Z,18.40
2018-09-05T22:26:19.807Z,18.40
2018-09-05T22:28:48.328Z,18.30
2018-09-05T22:31:16.840Z,18.30
2018-09-05T22:33:45.660Z,18.40
2018-09-05T22:36:14.472Z,18.30
2018-09-05T22:38:43.356Z,18.50
2018-09-05T22:41:12.274Z,18.60
2018-09-05T22:43:52.219Z,18.50
2018-09-05T22:46:31.927Z,18.50
2018-09-05T22:51:23.732Z,18.20
2018-09-05T22:54:15.134Z,18.20
2018-09-05T22:58:03.728Z,18.00
2018-09-05T23:02:47.096Z,18.10
2018-09-05T23:05:57.972Z,17.90
2018-09-05T23:08:46.923Z,17.70
2018-09-05T23:11:59.022Z,17.60
2018-09-05T23:14:39.981Z,17.60
2018-09-05T23:17:20.013Z,17.70
2018-09-05T23:20:09.667Z,17.80
2018-09-05T23:22:49.821Z,18.10
2018-09-05T23:25:18.359Z,17.90
2018-09-05T23:27:46.931Z,17.90
2018-09-05T23:30:15.432Z,18.00
2018-09-05T23:32:44.499Z,17.90
2018-09-05T23:35:13.019Z,17.60
2018-09-05T23:37:41.496Z,17.40
2018-09-05T23:40:13.374Z,17.30
2018-09-05T23:42:42.555Z,17.30
2018-09-05T23:45:11.112Z,17.30
2018-09-05T23:47:39.648Z,17.30
2018-09-05T23:50:08.426Z,17.30
2018-09-05T23:52:37.138Z,17.10
2018-09-05T23:55:06.613Z,17.10
2018-09-05T23:57:35.154Z,17.30
